createdAt,value
2022-11-15T00:05:14.675Z,7.25
2022-11-15T00:10:36.266Z,6.30
2022-11-15T00:16:00.949Z,6.80
2022-11-15T00:21:22.264Z,6.30
2022-11-15T00:26:43.777Z,6.55
2022-11-15T00:32:06.427Z,6.53
2022-11-15T00:37:27.907Z,6.78
2022-11-15T00:42:49.019Z,7.80
2022-11-15T00:48:12.143Z,7.35
2022-11-15T00:53:33.987Z,6.43
2022-11-15T00:58:55.561Z,6.78
2022-11-15T01:04:18.574Z,6.03
2022-11-15T01:09:39.670Z,5.80
2022-11-15T01:15:01.168Z,5.43
2022-11-15T01:20:24.008Z,6.47
2022-11-15T01:25:45.167Z,5.30
2022-11-15T01:31:07.857Z,6.18
2022-11-15T01:36:30.813Z,4.75
2022-11-15T01:41:51.902Z,5.32
2022-11-15T01:47:16.215Z,5.50
2022-11-15T01:52:40.213Z,4.60
2022-11-15T01:58:04.353Z,4.43
2022-11-15T02:03:31.427Z,3.47
2022-11-15T02:08:55.257Z,4.22
2022-11-15T02:14:17.587Z,4.10
2022-11-15T02:20:07.610Z,3.80
2022-11-15T02:25:40.580Z,3.95
2022-11-15T02:31:06.851Z,4.68
2022-11-15T02:36:36.330Z,4.03
2022-11-15T02:42:00.624Z,3.33
2022-11-15T02:47:23.953Z,3.70
2022-11-15T02:52:47.673Z,3.80
2022-11-15T02:58:25.528Z,3.33
2022-11-15T03:03:59.142Z,2.88
2022-11-15T03:09:28.867Z,3.10
2022-11-15T03:14:53.697Z,3.20
2022-11-15T03:20:18.023Z,3.08
2022-11-15T03:25:43.516Z,2.67
2022-11-15T03:31:25.601Z,3.22
2022-11-15T03:36:49.369Z,5.13
2022-11-15T03:42:18.597Z,3.22
2022-11-15T03:47:42.708Z,3.42
2022-11-15T03:53:05.580Z,10.02
2022-11-15T03:58:26.700Z,3.55
2022-11-15T04:03:48.039Z,5.55
2022-11-15T04:09:10.899Z,3.83
2022-11-15T04:14:32.391Z,7.30
2022-11-15T04:20:11.525Z,3.83
2022-11-15T04:25:34.560Z,4.18
2022-11-15T04:30:55.740Z,3.45
2022-11-15T04:36:34.783Z,3.30
2022-11-15T04:41:57.655Z,3.20
2022-11-15T04:47:19.819Z,3.67
2022-11-15T04:52:41.806Z,3.70
2022-11-15T04:58:04.547Z,3.70
2022-11-15T05:03:43.512Z,3.80
2022-11-15T05:09:05.426Z,3.72
2022-11-15T05:14:28.035Z,4.03
2022-11-15T05:19:49.453Z,3.20
2022-11-15T05:25:10.891Z,2.88
2022-11-15T05:30:33.555Z,3.30
2022-11-15T05:35:59.897Z,2.97
2022-11-15T05:41:23.580Z,2.70
2022-11-15T05:46:46.514Z,2.85
2022-11-15T05:52:10.046Z,3.63
2022-11-15T05:57:31.291Z,3.95
2022-11-15T06:02:54.155Z,3.55
2022-11-15T06:08:15.559Z,4.50
2022-11-15T06:13:37.044Z,3.95
2022-11-15T06:18:59.848Z,4.07
2022-11-15T06:24:21.238Z,3.88
2022-11-15T06:29:42.602Z,4.40
2022-11-15T06:35:06.745Z,4.75
2022-11-15T06:40:28.321Z,4.80
2022-11-15T06:45:49.453Z,4.50
2022-11-15T06:51:12.206Z,5.47
2022-11-15T06:56:33.808Z,7.72
2022-11-15T07:01:55.137Z,6.47
2022-11-15T07:07:17.967Z,5.40
2022-11-15T07:12:39.263Z,6.15
2022-11-15T07:18:02.666Z,5.38
2022-11-15T07:23:25.300Z,4.43
2022-11-15T07:28:46.725Z,3.33
2022-11-15T07:34:08.170Z,2.97
2022-11-15T07:39:31.014Z,2.50
2022-11-15T07:44:52.368Z,3.72
2022-11-15T07:50:14.030Z,2.50
2022-11-15T07:55:36.859Z,2.40
2022-11-15T08:00:58.306Z,2.83
2022-11-15T08:06:19.648Z,3.35
2022-11-15T08:11:42.413Z,2.20
2022-11-15T08:17:04.027Z,10.73
2022-11-15T08:22:25.382Z,2.50
2022-11-15T08:27:48.422Z,2.95
2022-11-15T08:33:12.828Z,2.72
2022-11-15T08:38:34.307Z,2.40
2022-11-15T08:43:57.367Z,2.60
2022-11-15T08:49:18.874Z,2.20
2022-11-15T08:54:40.175Z,5.53
2022-11-15T09:00:03.110Z,2.80
2022-11-15T09:05:24.332Z,2.40
2022-11-15T09:10:45.754Z,2.55
2022-11-15T09:16:08.801Z,3.13
2022-11-15T09:21:30.908Z,2.55
2022-11-15T09:26:52.577Z,2.42
2022-11-15T09:32:15.398Z,2.75
2022-11-15T09:37:36.844Z,2.72
2022-11-15T09:43:10.111Z,2.28
2022-11-15T09:48:48.296Z,2.17
2022-11-15T09:59:56.380Z,2.25
2022-11-15T10:05:01.784Z,1.85
2022-11-15T10:10:10.388Z,2.42
2022-11-15T10:15:15.578Z,2.17
2022-11-15T10:20:22.971Z,2.28
2022-11-15T10:25:27.260Z,2.58
2022-11-15T10:30:40.238Z,2.28
2022-11-15T10:35:44.448Z,2.10
2022-11-15T10:40:47.141Z,2.50
2022-11-15T10:45:50.884Z,2.22
2022-11-15T10:50:56.198Z,2.20
2022-11-15T10:56:01.897Z,2.38
2022-11-15T11:01:13.021Z,2.50
2022-11-15T11:06:19.194Z,2.45
2022-11-15T11:11:22.089Z,2.50
2022-11-15T11:16:43.981Z,1.92
2022-11-15T11:21:53.451Z,2.03
2022-11-15T11:27:07.892Z,2.17
2022-11-15T11:32:23.719Z,1.77
2022-11-15T11:37:33.048Z,1.95
2022-11-15T11:42:40.886Z,1.90
2022-11-15T11:47:49.097Z,1.83
2022-11-15T11:53:03.647Z,2.38
2022-11-15T11:58:13.575Z,2.25
2022-11-15T12:03:23.899Z,2.22
2022-11-15T12:08:35.582Z,1.88
2022-11-15T12:13:38.824Z,1.30
2022-11-15T12:18:51.132Z,1.77
2022-11-15T12:23:58.676Z,1.83
2022-11-15T12:29:08.617Z,1.90
2022-11-15T12:34:30.875Z,6.32
2022-11-15T12:40:07.163Z,2.28
2022-11-15T12:45:26.670Z,1.75
2022-11-15T12:50:58.922Z,2.20
2022-11-15T12:56:23.726Z,2.08
2022-11-15T13:01:58.132Z,1.80
2022-11-15T13:07:04.038Z,1.60
2022-11-15T13:12:13.594Z,2.10
2022-11-15T13:17:37.209Z,1.80
2022-11-15T13:22:52.821Z,2.20
2022-11-15T13:28:00.440Z,1.83
2022-11-15T13:33:10.958Z,2.20
2022-11-15T13:38:22.519Z,2.17
2022-11-15T13:43:33.236Z,2.17
2022-11-15T13:48:36.374Z,2.50
2022-11-15T13:53:40.795Z,3.03
2022-11-15T13:58:44.910Z,2.28
2022-11-15T14:03:56.729Z,2.42
2022-11-15T14:09:03.695Z,2.38
2022-11-15T14:14:16.371Z,3.03
2022-11-15T14:19:38.567Z,1.92
2022-11-15T14:24:42.023Z,1.73
2022-11-15T14:29:46.260Z,2.47
2022-11-15T14:34:49.491Z,1.60
2022-11-15T14:39:52.685Z,2.42
2022-11-15T14:44:56.744Z,2.15
2022-11-15T14:49:59.495Z,1.92
2022-11-15T14:55:03.246Z,2.08
2022-11-15T15:00:10.884Z,2.63
2022-11-15T15:05:18.596Z,2.80
2022-11-15T15:15:46.256Z,2.85
2022-11-15T15:20:52.433Z,2.67
2022-11-15T15:25:55.157Z,2.53
2022-11-15T15:31:00.284Z,4.13
2022-11-15T15:36:03.151Z,3.25
2022-11-15T15:41:06.086Z,3.47
2022-11-15T15:46:12.197Z,2.45
2022-11-15T15:51:20.105Z,10.20
2022-11-15T15:56:23.667Z,3.22
2022-11-15T16:01:27.764Z,2.53
2022-11-15T16:06:37.284Z,4.93
2022-11-15T16:11:40.073Z,3.95
2022-11-15T16:16:44.159Z,3.88
2022-11-15T16:21:47.045Z,4.13
2022-11-15T16:26:50.555Z,4.55
2022-11-15T16:31:54.621Z,4.28
2022-11-15T16:36:57.552Z,4.22
2022-11-15T16:42:00.781Z,6.68
2022-11-15T16:47:05.083Z,7.55
2022-11-15T16:52:07.952Z,6.45
2022-11-15T16:57:12.458Z,6.07
2022-11-15T17:02:17.249Z,7.53
2022-11-15T17:07:20.034Z,5.30
2022-11-15T17:12:22.881Z,5.97
2022-11-15T17:17:27.474Z,5.22
2022-11-15T17:22:30.386Z,5.70
2022-11-15T17:27:33.380Z,7.30
2022-11-15T17:32:38.573Z,14.02
2022-11-15T17:37:41.331Z,12.48
2022-11-15T17:42:44.715Z,13.20
2022-11-15T17:47:48.861Z,12.23
2022-11-15T17:52:51.796Z,13.55
2022-11-15T17:57:54.555Z,11.27
2022-11-15T18:02:59.301Z,13.02
2022-11-15T18:08:02.069Z,16.27
2022-11-15T18:13:05.260Z,13.00
2022-11-15T18:18:09.353Z,12.63
2022-11-15T18:23:12.393Z,10.55
2022-11-15T18:28:15.327Z,9.40
2022-11-15T18:33:19.722Z,13.40
2022-11-15T18:38:22.499Z,13.55
2022-11-15T18:43:25.269Z,11.15
2022-11-15T18:48:31.862Z,8.70
2022-11-15T18:53:35.942Z,9.52
2022-11-15T18:58:40.871Z,11.38
2022-11-15T19:03:46.460Z,9.38
2022-11-15T19:08:50.744Z,11.65
2022-11-15T19:13:54.546Z,12.32
2022-11-15T19:18:59.765Z,11.25
2022-11-15T19:24:03.121Z,11.70
2022-11-15T19:29:07.095Z,12.38
2022-11-15T19:34:13.064Z,11.98
2022-11-15T19:39:18.414Z,10.18
2022-11-15T19:44:22.696Z,11.13
2022-11-15T19:49:27.547Z,9.13
2022-11-15T19:54:30.336Z,9.70
2022-11-15T19:59:33.036Z,11.05
2022-11-15T20:04:37.149Z,9.57
2022-11-15T20:09:39.865Z,8.63
2022-11-15T20:14:42.700Z,8.00
2022-11-15T20:19:46.899Z,7.50
2022-11-15T20:24:49.841Z,8.48
2022-11-15T20:29:54.490Z,7.18
2022-11-15T20:34:58.570Z,7.03
2022-11-15T20:40:01.413Z,6.82
2022-11-15T20:45:04.408Z,5.88
2022-11-15T20:50:35.495Z,7.60
2022-11-15T20:55:32.399Z,7.75
2022-11-15T21:00:36.774Z,8.13
2022-11-15T21:05:42.000Z,7.90
2022-11-15T21:11:16.559Z,6.53
2022-11-15T21:16:19.260Z,5.60
2022-11-15T21:21:23.425Z,4.97
2022-11-15T21:26:26.162Z,6.43
2022-11-15T21:31:29.041Z,5.70
2022-11-15T21:36:33.163Z,5.10
2022-11-15T21:41:36.332Z,6.70
2022-11-15T21:46:39.195Z,6.15
2022-11-15T21:51:43.351Z,6.95
2022-11-15T21:56:46.359Z,5.78
2022-11-15T22:02:06.741Z,6.68
2022-11-15T22:07:10.853Z,5.68
2022-11-15T22:12:13.920Z,6.25
2022-11-15T22:17:16.873Z,5.32
2022-11-15T22:22:21.095Z,5.63
2022-11-15T22:27:24.099Z,5.10
2022-11-15T22:32:27.164Z,4.60
2022-11-15T22:37:31.401Z,4.90
2022-11-15T22:42:34.267Z,4.55
2022-11-15T22:47:37.208Z,5.03
2022-11-15T22:52:41.430Z,4.70
2022-11-15T22:57:44.397Z,4.90
2022-11-15T23:02:51.795Z,4.50
2022-11-15T23:07:57.573Z,5.13
2022-11-15T23:13:19.484Z,7.25
2022-11-15T23:18:22.344Z,5.57
2022-11-15T23:23:26.649Z,5.03
2022-11-15T23:28:29.624Z,6.00
2022-11-15T23:33:50.113Z,6.22
2022-11-15T23:38:54.603Z,7.88
2022-11-15T23:43:57.446Z,9.57
2022-11-15T23:49:00.691Z,7.47
2022-11-15T23:54:05.069Z,7.30
2022-11-15T23:59:08.466Z,8.07
